Airfield :
LOGIN :

Register | Disclaimer

   EN    FR    IT 

 










Legend :    VFR   Marginal VFR   IFR   Intensive IFR   Very Intensive IFR
Visi :
Ceiling :
>= 8 km
>= 3000ft
5 to 8 km
1000 to 3000 ft
1500m to 5 km
500 to 1000 ft
800 to 1500m
200 to 500 ft
< 800m
< 200 ft
Symbols :   Thunderstorms  Fog  Heavy snow  Heavy precipitations  Wind > 20 kt
SIGMETs :     Misc.  Thunderstorms  Icing  Turbulence  Mountain Waves  Volcanic Ashes







- Airport Elevation : 297 ft


EGVP - Middle Wallop

CURRENT METAR :
  • 281550Z AUTO 21015G25KT 9999 // SCT011/// BKN048/// 17/14 Q1009

EXPIRED METARs :
  • 281512Z 21013KT 9999 BKN012 16/14 Q1009 GRN TEMPO BKN015 WHT
  • 281450Z 21016KT 9999 4000SW -RADZ BKN010 16/14 Q1009 GRN TEMPO 9999 NSW GRN
  • 281350Z 21015KT 9999 -RA BKN013 16/14 Q1009 GRN TEMPO 5000 RA GRN

TAF TAF EGVP
Valid from the 28 at 09:00 until the 28 at 18:00 UTC


280753Z 2809/2818 22010KT 9999 FEW020 BKN040
TEMPO 2809/2815 BKN020
PROB30
TEMPO 2809/2818 7000 -RA
BECMG 2815/2818 20015G25KT -RA BKN010
ATIS : +44 1980 674 142
No reported NOTAMs for that airfield.



MET'MAP, your aeronautical weather chart ! - Copyright ORBIFLY December 2007 - Disclaimer

ORBIFLY MET'MAP TEAM :

Programming & Development : Alexandra Zaïnal
Concept & Development : Baudouin d'Aumeries
Co-Development & Prog : Marc-Olivier Méhu
Technical & hardware support : Manuel Goepfert

Contact : metmap@orbifly.com




SOURCES & CREDITS :

   NOAA